sensor_id;sensor_type;location;lat;lon;timestamp;pressure;altitude;pressure_sealevel;temperature;humidity
54872;BME280;43914;57.680;11.982;2023-01-31T00:01:31;99665.91;;;1.67;65.92
54872;BME280;43914;57.680;11.982;2023-01-31T00:04:02;99672.83;;;1.65;65.93
54872;BME280;43914;57.680;11.982;2023-01-31T00:06:31;99673.44;;;1.64;65.86
54872;BME280;43914;57.680;11.982;2023-01-31T00:08:58;99670.98;;;1.64;66.10
54872;BME280;43914;57.680;11.982;2023-01-31T00:11:27;99669.59;;;1.62;66.24
54872;BME280;43914;57.680;11.982;2023-01-31T00:13:53;99666.94;;;1.62;66.40
54872;BME280;43914;57.680;11.982;2023-01-31T00:16:20;99667.68;;;1.60;66.40
54872;BME280;43914;57.680;11.982;2023-01-31T00:18:47;99662.27;;;1.58;66.37
54872;BME280;43914;57.680;11.982;2023-01-31T00:21:22;99661.05;;;1.59;66.41
54872;BME280;43914;57.680;11.982;2023-01-31T00:23:48;99658.88;;;1.60;66.41
54872;BME280;43914;57.680;11.982;2023-01-31T00:26:22;99652.65;;;1.58;66.23
54872;BME280;43914;57.680;11.982;2023-01-31T00:28:49;99658.19;;;1.60;66.10
54872;BME280;43914;57.680;11.982;2023-01-31T00:31:16;99667.42;;;1.61;65.89
54872;BME280;43914;57.680;11.982;2023-01-31T00:33:44;99665.20;;;1.60;65.90
54872;BME280;43914;57.680;11.982;2023-01-31T00:36:15;99663.36;;;1.61;65.74
54872;BME280;43914;57.680;11.982;2023-01-31T00:38:42;99666.08;;;1.62;65.83
54872;BME280;43914;57.680;11.982;2023-01-31T00:41:09;99672.52;;;1.61;65.74
54872;BME280;43914;57.680;11.982;2023-01-31T00:43:35;99681.16;;;1.61;65.67
54872;BME280;43914;57.680;11.982;2023-01-31T00:46:01;99686.39;;;1.60;65.80
54872;BME280;43914;57.680;11.982;2023-01-31T00:48:27;99696.69;;;1.61;65.77
54872;BME280;43914;57.680;11.982;2023-01-31T00:50:53;99703.29;;;1.61;65.67
54872;BME280;43914;57.680;11.982;2023-01-31T00:53:19;99703.08;;;1.61;65.48
54872;BME280;43914;57.680;11.982;2023-01-31T00:55:52;99703.05;;;1.62;65.46
54872;BME280;43914;57.680;11.982;2023-01-31T00:58:19;99708.86;;;1.60;65.40
54872;BME280;43914;57.680;11.982;2023-01-31T01:00:45;99712.98;;;1.59;65.23
54872;BME280;43914;57.680;11.982;2023-01-31T01:03:11;99715.09;;;1.59;65.37
54872;BME280;43914;57.680;11.982;2023-01-31T01:05:40;99720.38;;;1.59;65.58
54872;BME280;43914;57.680;11.982;2023-01-31T01:08:06;99716.20;;;1.59;65.69
54872;BME280;43914;57.680;11.982;2023-01-31T01:10:33;99721.37;;;1.58;65.77
54872;BME280;43914;57.680;11.982;2023-01-31T01:12:58;99720.06;;;1.57;66.11
54872;BME280;43914;57.680;11.982;2023-01-31T01:15:24;99719.91;;;1.55;66.04
54872;BME280;43914;57.680;11.982;2023-01-31T01:17:49;99715.82;;;1.54;66.35
54872;BME280;43914;57.680;11.982;2023-01-31T01:20:16;99709.23;;;1.54;66.67
54872;BME280;43914;57.680;11.982;2023-01-31T01:22:42;99709.40;;;1.54;66.90
54872;BME280;43914;57.680;11.982;2023-01-31T01:25:08;99704.95;;;1.53;67.25
54872;BME280;43914;57.680;11.982;2023-01-31T01:27:34;99704.12;;;1.52;67.44
54872;BME280;43914;57.680;11.982;2023-01-31T01:30:00;99700.93;;;1.54;67.74
54872;BME280;43914;57.680;11.982;2023-01-31T01:32:26;99701.52;;;1.53;67.99
54872;BME280;43914;57.680;11.982;2023-01-31T01:34:52;99709.73;;;1.54;68.24
54872;BME280;43914;57.680;11.982;2023-01-31T01:37:18;99715.83;;;1.55;68.22
54872;BME280;43914;57.680;11.982;2023-01-31T01:39:49;99712.55;;;1.54;68.52
54872;BME280;43914;57.680;11.982;2023-01-31T01:42:21;99707.88;;;1.51;68.69
54872;BME280;43914;57.680;11.982;2023-01-31T01:44:53;99715.73;;;1.55;68.96
54872;BME280;43914;57.680;11.982;2023-01-31T01:49:51;99728.23;;;1.56;69.19
54872;BME280;43914;57.680;11.982;2023-01-31T01:52:20;99721.48;;;1.57;69.51
54872;BME280;43914;57.680;11.982;2023-01-31T01:54:54;99723.88;;;1.58;69.74
54872;BME280;43914;57.680;11.982;2023-01-31T01:57:29;99724.84;;;1.59;70.00
54872;BME280;43914;57.680;11.982;2023-01-31T02:00:14;99723.79;;;1.59;70.23
54872;BME280;43914;57.680;11.982;2023-01-31T02:02:44;99734.54;;;1.59;70.65
54872;BME280;43914;57.680;11.982;2023-01-31T02:05:14;99729.19;;;1.59;71.00
54872;BME280;43914;57.680;11.982;2023-01-31T02:07:41;99736.34;;;1.62;71.17
54872;BME280;43914;57.680;11.982;2023-01-31T02:10:13;99740.23;;;1.62;71.23
54872;BME280;43914;57.680;11.982;2023-01-31T02:12:40;99744.55;;;1.63;71.21
54872;BME280;43914;57.680;11.982;2023-01-31T02:15:07;99745.91;;;1.64;71.40
54872;BME280;43914;57.680;11.982;2023-01-31T02:17:32;99756.11;;;1.64;71.19
54872;BME280;43914;57.680;11.982;2023-01-31T02:41:37;99741.92;;;1.72;72.08
54872;BME280;43914;57.680;11.982;2023-01-31T02:47:12;99742.62;;;1.76;71.92
54872;BME280;43914;57.680;11.982;2023-01-31T02:49:49;99735.10;;;1.77;71.49
54872;BME280;43914;57.680;11.982;2023-01-31T02:58:02;99716.52;;;1.81;70.92
54872;BME280;43914;57.680;11.982;2023-01-31T03:00:32;99715.84;;;1.82;70.83
54872;BME280;43914;57.680;11.982;2023-01-31T03:02:58;99716.11;;;1.83;70.72
54872;BME280;43914;57.680;11.982;2023-01-31T03:05:24;99719.46;;;1.85;70.77
54872;BME280;43914;57.680;11.982;2023-01-31T03:07:56;99717.42;;;1.86;70.76
54872;BME280;43914;57.680;11.982;2023-01-31T03:13:34;99712.84;;;1.88;70.24
54872;BME280;43914;57.680;11.982;2023-01-31T03:16:26;99708.86;;;1.87;70.22
54872;BME280;43914;57.680;11.982;2023-01-31T03:22:00;99710.80;;;1.85;70.18
54872;BME280;43914;57.680;11.982;2023-01-31T03:24:29;99712.06;;;1.86;70.14
54872;BME280;43914;57.680;11.982;2023-01-31T03:26:57;99707.30;;;1.86;70.42
54872;BME280;43914;57.680;11.982;2023-01-31T03:29:27;99706.32;;;1.87;70.51
54872;BME280;43914;57.680;11.982;2023-01-31T03:32:03;99702.25;;;1.88;70.65
54872;BME280;43914;57.680;11.982;2023-01-31T03:34:30;99700.91;;;1.87;70.79
54872;BME280;43914;57.680;11.982;2023-01-31T03:40:00;99707.70;;;1.90;70.68
54872;BME280;43914;57.680;11.982;2023-01-31T03:47:53;99700.64;;;1.90;70.50
54872;BME280;43914;57.680;11.982;2023-01-31T03:50:30;99700.67;;;1.89;70.28
54872;BME280;43914;57.680;11.982;2023-01-31T03:53:22;99705.34;;;1.90;70.20
54872;BME280;43914;57.680;11.982;2023-01-31T03:55:57;99700.14;;;1.89;70.39
54872;BME280;43914;57.680;11.982;2023-01-31T03:58:28;99702.20;;;1.90;70.33
54872;BME280;43914;57.680;11.982;2023-01-31T04:00:57;99698.52;;;1.90;70.50
54872;BME280;43914;57.680;11.982;2023-01-31T04:03:29;99705.39;;;1.92;70.48
54872;BME280;43914;57.680;11.982;2023-01-31T04:05:57;99705.77;;;1.92;70.40
54872;BME280;43914;57.680;11.982;2023-01-31T04:08:23;99712.64;;;1.92;70.28
54872;BME280;43914;57.680;11.982;2023-01-31T04:10:49;99709.59;;;1.92;70.11
54872;BME280;43914;57.680;11.982;2023-01-31T04:13:15;99707.60;;;1.91;70.00
54872;BME280;43914;57.680;11.982;2023-01-31T04:15:41;99703.66;;;1.91;70.01
54872;BME280;43914;57.680;11.982;2023-01-31T04:18:06;99706.28;;;1.91;70.23
54872;BME280;43914;57.680;11.982;2023-01-31T04:20:32;99700.77;;;1.92;70.40
54872;BME280;43914;57.680;11.982;2023-01-31T04:22:57;99697.77;;;1.92;70.36
54872;BME280;43914;57.680;11.982;2023-01-31T04:25:24;99697.15;;;1.89;70.67
54872;BME280;43914;57.680;11.982;2023-01-31T04:27:50;99693.90;;;1.88;70.78
54872;BME280;43914;57.680;11.982;2023-01-31T04:30:16;99701.13;;;1.84;70.89
54872;BME280;43914;57.680;11.982;2023-01-31T04:32:42;99694.95;;;1.79;71.09
54872;BME280;43914;57.680;11.982;2023-01-31T04:35:08;99699.73;;;1.77;71.56
54872;BME280;43914;57.680;11.982;2023-01-31T04:37:33;99700.73;;;1.75;71.99
54872;BME280;43914;57.680;11.982;2023-01-31T04:39:59;99698.23;;;1.72;72.44
54872;BME280;43914;57.680;11.982;2023-01-31T04:42:26;99693.90;;;1.70;72.90
54872;BME280;43914;57.680;11.982;2023-01-31T04:44:51;99687.27;;;1.67;73.53
54872;BME280;43914;57.680;11.982;2023-01-31T04:47:17;99686.70;;;1.66;73.71
54872;BME280;43914;57.680;11.982;2023-01-31T04:49:42;99679.98;;;1.65;74.08
54872;BME280;43914;57.680;11.982;2023-01-31T04:52:09;99679.35;;;1.62;74.54
54872;BME280;43914;57.680;11.982;2023-01-31T04:54:35;99673.73;;;1.60;74.78
54872;BME280;43914;57.680;11.982;2023-01-31T04:57:01;99666.38;;;1.59;74.96
54872;BME280;43914;57.680;11.982;2023-01-31T04:59:27;99670.29;;;1.59;75.03
54872;BME280;43914;57.680;11.982;2023-01-31T05:01:52;99667.09;;;1.57;75.09
54872;BME280;43914;57.680;11.982;2023-01-31T05:04:18;99659.70;;;1.55;75.09
54872;BME280;43914;57.680;11.982;2023-01-31T05:06:43;99662.40;;;1.54;75.00
54872;BME280;43914;57.680;11.982;2023-01-31T05:09:11;99665.42;;;1.52;75.02
54872;BME280;43914;57.680;11.982;2023-01-31T05:11:37;99665.92;;;1.53;74.92
54872;BME280;43914;57.680;11.982;2023-01-31T05:14:02;99667.48;;;1.52;74.71
54872;BME280;43914;57.680;11.982;2023-01-31T05:16:28;99671.46;;;1.50;74.69
54872;BME280;43914;57.680;11.982;2023-01-31T05:18:53;99667.48;;;1.48;74.56
54872;BME280;43914;57.680;11.982;2023-01-31T05:21:19;99653.46;;;1.45;74.54
54872;BME280;43914;57.680;11.982;2023-01-31T05:23:45;99650.66;;;1.43;74.65
54872;BME280;43914;57.680;11.982;2023-01-31T05:26:11;99648.10;;;1.42;74.75
54872;BME280;43914;57.680;11.982;2023-01-31T05:28:36;99640.64;;;1.41;74.91
54872;BME280;43914;57.680;11.982;2023-01-31T05:31:05;99639.13;;;1.42;74.95
54872;BME280;43914;57.680;11.982;2023-01-31T05:33:31;99631.40;;;1.41;74.87
54872;BME280;43914;57.680;11.982;2023-01-31T05:35:58;99627.35;;;1.39;75.00
54872;BME280;43914;57.680;11.982;2023-01-31T05:38:23;99627.91;;;1.39;75.06
54872;BME280;43914;57.680;11.982;2023-01-31T05:40:49;99624.42;;;1.38;75.06
54872;BME280;43914;57.680;11.982;2023-01-31T05:43:15;99624.94;;;1.37;75.08
54872;BME280;43914;57.680;11.982;2023-01-31T05:45:41;99627.35;;;1.36;75.19
54872;BME280;43914;57.680;11.982;2023-01-31T05:48:07;99631.14;;;1.33;75.01
54872;BME280;43914;57.680;11.982;2023-01-31T05:50:33;99633.67;;;1.32;75.06
54872;BME280;43914;57.680;11.982;2023-01-31T05:52:59;99635.59;;;1.31;75.14
54872;BME280;43914;57.680;11.982;2023-01-31T05:55:25;99636.67;;;1.31;75.34
54872;BME280;43914;57.680;11.982;2023-01-31T05:57:55;99635.81;;;1.30;75.60
54872;BME280;43914;57.680;11.982;2023-01-31T06:00:22;99632.95;;;1.31;75.79
54872;BME280;43914;57.680;11.982;2023-01-31T06:02:48;99630.01;;;1.32;76.01
54872;BME280;43914;57.680;11.982;2023-01-31T06:05:15;99630.34;;;1.32;76.26
54872;BME280;43914;57.680;11.982;2023-01-31T06:07:40;99628.22;;;1.32;76.22
54872;BME280;43914;57.680;11.982;2023-01-31T06:10:08;99631.23;;;1.34;76.12
54872;BME280;43914;57.680;11.982;2023-01-31T06:12:34;99627.33;;;1.36;76.08
54872;BME280;43914;57.680;11.982;2023-01-31T06:15:00;99622.83;;;1.37;75.84
54872;BME280;43914;57.680;11.982;2023-01-31T06:17:26;99621.09;;;1.38;75.68
54872;BME280;43914;57.680;11.982;2023-01-31T06:19:52;99620.73;;;1.44;76.44
54872;BME280;43914;57.680;11.982;2023-01-31T06:22:18;99616.21;;;1.49;76.14
54872;BME280;43914;57.680;11.982;2023-01-31T06:24:44;99615.02;;;1.52;76.15
54872;BME280;43914;57.680;11.982;2023-01-31T06:27:09;99610.48;;;1.53;76.15
54872;BME280;43914;57.680;11.982;2023-01-31T06:29:35;99605.70;;;1.55;76.24
54872;BME280;43914;57.680;11.982;2023-01-31T06:32:01;99604.69;;;1.58;76.35
54872;BME280;43914;57.680;11.982;2023-01-31T06:34:27;99606.98;;;1.62;76.36
54872;BME280;43914;57.680;11.982;2023-01-31T06:36:53;99601.08;;;1.63;76.19
54872;BME280;43914;57.680;11.982;2023-01-31T06:39:19;99596.91;;;1.65;75.91
54872;BME280;43914;57.680;11.982;2023-01-31T06:41:44;99595.46;;;1.64;75.67
54872;BME280;43914;57.680;11.982;2023-01-31T06:44:10;99593.69;;;1.64;75.85
54872;BME280;43914;57.680;11.982;2023-01-31T06:46:36;99581.63;;;1.64;75.90
54872;BME280;43914;57.680;11.982;2023-01-31T06:49:02;99582.92;;;1.64;76.22
54872;BME280;43914;57.680;11.982;2023-01-31T06:51:27;99579.90;;;1.62;76.28
54872;BME280;43914;57.680;11.982;2023-01-31T06:53:53;99572.97;;;1.61;76.47
54872;BME280;43914;57.680;11.982;2023-01-31T06:56:20;99578.60;;;1.60;76.71
54872;BME280;43914;57.680;11.982;2023-01-31T06:58:46;99574.80;;;1.58;76.72
54872;BME280;43914;57.680;11.982;2023-01-31T07:01:13;99571.63;;;1.57;76.94
54872;BME280;43914;57.680;11.982;2023-01-31T07:03:40;99566.73;;;1.54;77.25
54872;BME280;43914;57.680;11.982;2023-01-31T07:06:07;99576.50;;;1.54;77.40
54872;BME280;43914;57.680;11.982;2023-01-31T07:08:33;99586.19;;;1.54;77.56
54872;BME280;43914;57.680;11.982;2023-01-31T07:10:59;99583.48;;;1.53;77.69
54872;BME280;43914;57.680;11.982;2023-01-31T07:13:28;99586.36;;;1.54;77.65
54872;BME280;43914;57.680;11.982;2023-01-31T07:15:56;99577.15;;;1.56;77.77
54872;BME280;43914;57.680;11.982;2023-01-31T07:18:22;99570.80;;;1.58;77.64
54872;BME280;43914;57.680;11.982;2023-01-31T07:20:49;99566.90;;;1.58;77.67
54872;BME280;43914;57.680;11.982;2023-01-31T07:23:14;99560.52;;;1.58;77.63
54872;BME280;43914;57.680;11.982;2023-01-31T07:25:40;99561.02;;;1.59;77.70
54872;BME280;43914;57.680;11.982;2023-01-31T07:28:06;99560.13;;;1.59;77.89
54872;BME280;43914;57.680;11.982;2023-01-31T07:30:32;99557.94;;;1.59;77.97
54872;BME280;43914;57.680;11.982;2023-01-31T07:32:59;99557.48;;;1.59;78.38
54872;BME280;43914;57.680;11.982;2023-01-31T07:35:24;99556.18;;;1.59;78.54
54872;BME280;43914;57.680;11.982;2023-01-31T07:37:51;99558.63;;;1.62;78.77
54872;BME280;43914;57.680;11.982;2023-01-31T07:40:17;99555.67;;;1.64;78.90
54872;BME280;43914;57.680;11.982;2023-01-31T07:42:42;99559.71;;;1.68;78.60
54872;BME280;43914;57.680;11.982;2023-01-31T07:45:10;99557.73;;;1.74;78.92
54872;BME280;43914;57.680;11.982;2023-01-31T07:47:36;99555.48;;;1.79;78.60
54872;BME280;43914;57.680;11.982;2023-01-31T07:50:02;99550.46;;;1.83;78.47
54872;BME280;43914;57.680;11.982;2023-01-31T07:52:28;99542.25;;;1.89;78.28
54872;BME280;43914;57.680;11.982;2023-01-31T07:54:53;99536.11;;;1.94;78.10
54872;BME280;43914;57.680;11.982;2023-01-31T07:57:19;99529.16;;;1.97;78.16
54872;BME280;43914;57.680;11.982;2023-01-31T07:59:44;99517.49;;;2.01;78.30
54872;BME280;43914;57.680;11.982;2023-01-31T08:02:17;99514.94;;;2.06;78.35
54872;BME280;43914;57.680;11.982;2023-01-31T08:05:02;99501.86;;;2.09;78.69
54872;BME280;43914;57.680;11.982;2023-01-31T08:07:28;99493.66;;;2.12;78.79
54872;BME280;43914;57.680;11.982;2023-01-31T08:09:54;99490.45;;;2.15;78.91
54872;BME280;43914;57.680;11.982;2023-01-31T08:12:20;99493.66;;;2.20;78.88
54872;BME280;43914;57.680;11.982;2023-01-31T08:14:47;99496.88;;;2.23;78.71
54872;BME280;43914;57.680;11.982;2023-01-31T08:17:13;99492.05;;;2.27;78.71
54872;BME280;43914;57.680;11.982;2023-01-31T08:19:38;99488.47;;;2.31;78.77
54872;BME280;43914;57.680;11.982;2023-01-31T08:22:05;99485.35;;;2.36;78.79
54872;BME280;43914;57.680;11.982;2023-01-31T08:24:31;99481.05;;;2.39;78.97
54872;BME280;43914;57.680;11.982;2023-01-31T08:26:58;99463.55;;;2.43;79.28
54872;BME280;43914;57.680;11.982;2023-01-31T08:29:24;99461.06;;;2.48;79.49
54872;BME280;43914;57.680;11.982;2023-01-31T08:31:50;99453.02;;;2.52;79.72
54872;BME280;43914;57.680;11.982;2023-01-31T08:34:15;99447.19;;;2.55;79.75
54872;BME280;43914;57.680;11.982;2023-01-31T08:36:41;99448.31;;;2.59;79.71
54872;BME280;43914;57.680;11.982;2023-01-31T08:39:07;99442.48;;;2.63;79.75
54872;BME280;43914;57.680;11.982;2023-01-31T08:41:35;99434.30;;;2.65;79.85
54872;BME280;43914;57.680;11.982;2023-01-31T08:44:02;99434.50;;;2.70;79.94
54872;BME280;43914;57.680;11.982;2023-01-31T08:46:35;99430.27;;;2.73;80.08
54872;BME280;43914;57.680;11.982;2023-01-31T08:49:04;99423.65;;;2.77;80.39
54872;BME280;43914;57.680;11.982;2023-01-31T08:51:31;99420.84;;;2.79;80.57
54872;BME280;43914;57.680;11.982;2023-01-31T08:53:57;99414.80;;;2.81;80.86
54872;BME280;43914;57.680;11.982;2023-01-31T08:56:23;99414.70;;;2.81;81.10
54872;BME280;43914;57.680;11.982;2023-01-31T08:58:52;99408.90;;;2.83;81.18
54872;BME280;43914;57.680;11.982;2023-01-31T09:01:20;99409.89;;;2.83;81.37
54872;BME280;43914;57.680;11.982;2023-01-31T09:03:47;99405.15;;;2.85;81.55
54872;BME280;43914;57.680;11.982;2023-01-31T09:06:15;99397.73;;;2.86;81.66
54872;BME280;43914;57.680;11.982;2023-01-31T09:08:41;99401.77;;;2.90;81.64
54872;BME280;43914;57.680;11.982;2023-01-31T09:11:07;99396.02;;;2.91;81.72
54872;BME280;43914;57.680;11.982;2023-01-31T09:13:34;99400.86;;;2.93;81.81
54872;BME280;43914;57.680;11.982;2023-01-31T09:16:02;99396.08;;;2.97;81.89
54872;BME280;43914;57.680;11.982;2023-01-31T09:18:29;99394.52;;;3.00;82.04
54872;BME280;43914;57.680;11.982;2023-01-31T09:20:54;99392.10;;;3.02;82.18
54872;BME280;43914;57.680;11.982;2023-01-31T09:23:20;99388.50;;;3.05;82.30
54872;BME280;43914;57.680;11.982;2023-01-31T09:25:55;99381.13;;;3.07;82.49
54872;BME280;43914;57.680;11.982;2023-01-31T09:28:22;99374.77;;;3.10;82.63
54872;BME280;43914;57.680;11.982;2023-01-31T09:30:48;99364.77;;;3.13;82.82
54872;BME280;43914;57.680;11.982;2023-01-31T09:33:14;99360.90;;;3.16;83.09
54872;BME280;43914;57.680;11.982;2023-01-31T09:35:40;99357.56;;;3.19;83.31
54872;BME280;43914;57.680;11.982;2023-01-31T09:38:05;99360.29;;;3.20;83.66
54872;BME280;43914;57.680;11.982;2023-01-31T09:40:34;99362.92;;;3.20;84.64
54872;BME280;43914;57.680;11.982;2023-01-31T09:43:03;99358.55;;;3.18;86.06
54872;BME280;43914;57.680;11.982;2023-01-31T09:45:32;99349.31;;;3.15;87.19
54872;BME280;43914;57.680;11.982;2023-01-31T09:48:00;99348.99;;;3.13;88.57
54872;BME280;43914;57.680;11.982;2023-01-31T09:50:29;99338.72;;;3.11;89.59
54872;BME280;43914;57.680;11.982;2023-01-31T09:52:57;99334.23;;;3.12;90.39
54872;BME280;43914;57.680;11.982;2023-01-31T09:55:54;99328.55;;;3.12;91.31
54872;BME280;43914;57.680;11.982;2023-01-31T09:58:35;99320.30;;;3.13;92.48
54872;BME280;43914;57.680;11.982;2023-01-31T10:06:53;99296.27;;;3.16;95.11
54872;BME280;43914;57.680;11.982;2023-01-31T10:09:36;99284.02;;;3.13;95.62
54872;BME280;43914;57.680;11.982;2023-01-31T10:12:16;99265.31;;;3.11;96.63
54872;BME280;43914;57.680;11.982;2023-01-31T10:15:13;99259.56;;;3.13;97.00
54872;BME280;43914;57.680;11.982;2023-01-31T10:17:48;99250.52;;;3.14;97.49
54872;BME280;43914;57.680;11.982;2023-01-31T10:25:39;99244.60;;;3.14;98.47
54872;BME280;43914;57.680;11.982;2023-01-31T10:28:20;99244.11;;;3.17;99.06
54872;BME280;43914;57.680;11.982;2023-01-31T10:31:04;99243.63;;;3.20;99.30
54872;BME280;43914;57.680;11.982;2023-01-31T10:33:34;99241.42;;;3.25;99.27
54872;BME280;43914;57.680;11.982;2023-01-31T10:36:42;99235.45;;;3.27;99.51
54872;BME280;43914;57.680;11.982;2023-01-31T10:42:09;99240.02;;;3.33;99.91
54872;BME280;43914;57.680;11.982;2023-01-31T10:47:20;99235.86;;;3.36;100.00
54872;BME280;43914;57.680;11.982;2023-01-31T10:49:49;99233.46;;;3.35;100.00
54872;BME280;43914;57.680;11.982;2023-01-31T10:55:48;99223.16;;;3.27;100.00
54872;BME280;43914;57.680;11.982;2023-01-31T10:58:20;99229.48;;;3.26;100.00
54872;BME280;43914;57.680;11.982;2023-01-31T11:00:48;99226.17;;;3.29;100.00
54872;BME280;43914;57.680;11.982;2023-01-31T11:03:15;99232.33;;;3.32;100.00
54872;BME280;43914;57.680;11.982;2023-01-31T11:05:52;99228.16;;;3.35;100.00
54872;BME280;43914;57.680;11.982;2023-01-31T11:11:14;99205.99;;;3.38;100.00
54872;BME280;43914;57.680;11.982;2023-01-31T11:14:16;99203.33;;;3.38;100.00
54872;BME280;43914;57.680;11.982;2023-01-31T11:16:43;99198.00;;;3.37;100.00
54872;BME280;43914;57.680;11.982;2023-01-31T11:19:39;99185.77;;;3.36;100.00
54872;BME280;43914;57.680;11.982;2023-01-31T11:22:24;99179.80;;;3.33;100.00
54872;BME280;43914;57.680;11.982;2023-01-31T11:24:52;99168.31;;;3.28;100.00
54872;BME280;43914;57.680;11.982;2023-01-31T11:27:24;99165.70;;;3.28;100.00
54872;BME280;43914;57.680;11.982;2023-01-31T11:29:51;99154.25;;;3.23;100.00
54872;BME280;43914;57.680;11.982;2023-01-31T11:32:21;99149.98;;;3.23;100.00
54872;BME280;43914;57.680;11.982;2023-01-31T11:37:51;99140.15;;;3.26;100.00
54872;BME280;43914;57.680;11.982;2023-01-31T11:40:27;99131.19;;;3.25;100.00
54872;BME280;43914;57.680;11.982;2023-01-31T11:43:05;99120.05;;;3.25;100.00
54872;BME280;43914;57.680;11.982;2023-01-31T11:45:33;99112.27;;;3.22;100.00
54872;BME280;43914;57.680;11.982;2023-01-31T11:48:38;99104.73;;;3.18;100.00
54872;BME280;43914;57.680;11.982;2023-01-31T11:51:05;99091.20;;;3.17;100.00
54872;BME280;43914;57.680;11.982;2023-01-31T11:53:44;99080.02;;;3.17;100.00
54872;BME280;43914;57.680;11.982;2023-01-31T11:56:33;99069.81;;;3.15;100.00
54872;BME280;43914;57.680;11.982;2023-01-31T11:59:02;99058.42;;;3.16;100.00
54872;BME280;43914;57.680;11.982;2023-01-31T12:01:35;99043.46;;;3.15;100.00
54872;BME280;43914;57.680;11.982;2023-01-31T12:04:15;99032.55;;;3.14;100.00
54872;BME280;43914;57.680;11.982;2023-01-31T12:06:54;99019.57;;;3.15;100.00
54872;BME280;43914;57.680;11.982;2023-01-31T12:09:23;99008.27;;;3.15;100.00
54872;BME280;43914;57.680;11.982;2023-01-31T12:11:58;98989.89;;;3.13;100.00
54872;BME280;43914;57.680;11.982;2023-01-31T12:14:37;98970.37;;;3.10;100.00
54872;BME280;43914;57.680;11.982;2023-01-31T12:17:04;98962.01;;;3.10;100.00
54872;BME280;43914;57.680;11.982;2023-01-31T12:23:01;98930.31;;;3.03;100.00
54872;BME280;43914;57.680;11.982;2023-01-31T12:30:43;98906.41;;;2.85;100.00
54872;BME280;43914;57.680;11.982;2023-01-31T12:55:02;98862.59;;;2.56;100.00
54872;BME280;43914;57.680;11.982;2023-01-31T13:01:04;98841.27;;;2.51;100.00
54872;BME280;43914;57.680;11.982;2023-01-31T13:06:42;98826.29;;;2.49;100.00
54872;BME280;43914;57.680;11.982;2023-01-31T13:09:19;98815.75;;;2.48;100.00
54872;BME280;43914;57.680;11.982;2023-01-31T13:11:46;98800.97;;;2.48;100.00
54872;BME280;43914;57.680;11.982;2023-01-31T13:14:18;98791.06;;;2.48;100.00
54872;BME280;43914;57.680;11.982;2023-01-31T13:16:46;98781.80;;;2.50;100.00
54872;BME280;43914;57.680;11.982;2023-01-31T13:22:16;98763.30;;;2.51;100.00
54872;BME280;43914;57.680;11.982;2023-01-31T13:24:46;98763.11;;;2.52;100.00
54872;BME280;43914;57.680;11.982;2023-01-31T13:27:23;98759.56;;;2.52;100.00
54872;BME280;43914;57.680;11.982;2023-01-31T13:29:58;98746.83;;;2.52;100.00
54872;BME280;43914;57.680;11.982;2023-01-31T13:32:47;98740.63;;;2.52;100.00
54872;BME280;43914;57.680;11.982;2023-01-31T13:38:02;98723.57;;;2.58;100.00
54872;BME280;43914;57.680;11.982;2023-01-31T13:40:56;98703.11;;;2.62;100.00
54872;BME280;43914;57.680;11.982;2023-01-31T13:43:22;98679.27;;;2.68;100.00
54872;BME280;43914;57.680;11.982;2023-01-31T13:46:08;98665.95;;;2.72;100.00
54872;BME280;43914;57.680;11.982;2023-01-31T13:49:05;98666.13;;;2.77;100.00
54872;BME280;43914;57.680;11.982;2023-01-31T13:51:46;98657.48;;;2.79;100.00
54872;BME280;43914;57.680;11.982;2023-01-31T13:54:35;98645.85;;;2.81;100.00
54872;BME280;43914;57.680;11.982;2023-01-31T13:57:02;98621.92;;;2.83;100.00
54872;BME280;43914;57.680;11.982;2023-01-31T13:59:33;98619.95;;;2.85;100.00
54872;BME280;43914;57.680;11.982;2023-01-31T14:02:18;98623.52;;;2.87;100.00
54872;BME280;43914;57.680;11.982;2023-01-31T14:04:44;98619.09;;;2.90;100.00
54872;BME280;43914;57.680;11.982;2023-01-31T14:07:15;98610.20;;;2.91;100.00
54872;BME280;43914;57.680;11.982;2023-01-31T14:12:37;98591.82;;;2.94;100.00
54872;BME280;43914;57.680;11.982;2023-01-31T14:24:04;98562.90;;;3.02;100.00
54872;BME280;43914;57.680;11.982;2023-01-31T14:26:50;98549.45;;;3.05;100.00
54872;BME280;43914;57.680;11.982;2023-01-31T14:29:22;98532.36;;;3.04;100.00
54872;BME280;43914;57.680;11.982;2023-01-31T14:31:49;98522.95;;;3.07;100.00
54872;BME280;43914;57.680;11.982;2023-01-31T14:34:28;98514.87;;;3.11;100.00
54872;BME280;43914;57.680;11.982;2023-01-31T14:40:12;98502.30;;;3.17;100.00
54872;BME280;43914;57.680;11.982;2023-01-31T14:45:32;98493.56;;;3.23;100.00
54872;BME280;43914;57.680;11.982;2023-01-31T14:51:07;98487.52;;;3.29;100.00
54872;BME280;43914;57.680;11.982;2023-01-31T14:59:31;98466.02;;;3.38;100.00
54872;BME280;43914;57.680;11.982;2023-01-31T15:01:58;98476.94;;;3.40;100.00
54872;BME280;43914;57.680;11.982;2023-01-31T15:04:25;98472.20;;;3.39;100.00
54872;BME280;43914;57.680;11.982;2023-01-31T15:06:54;98473.83;;;3.44;100.00
54872;BME280;43914;57.680;11.982;2023-01-31T15:11:50;98464.39;;;3.44;100.00
54872;BME280;43914;57.680;11.982;2023-01-31T15:22:38;98456.19;;;3.40;100.00
54872;BME280;43914;57.680;11.982;2023-01-31T15:25:20;98458.87;;;3.39;100.00
54872;BME280;43914;57.680;11.982;2023-01-31T15:27:48;98463.44;;;3.36;100.00
54872;BME280;43914;57.680;11.982;2023-01-31T15:30:19;98468.41;;;3.36;100.00
54872;BME280;43914;57.680;11.982;2023-01-31T15:40:28;98467.23;;;3.34;100.00
54872;BME280;43914;57.680;11.982;2023-01-31T15:43:14;98472.48;;;3.33;100.00
54872;BME280;43914;57.680;11.982;2023-01-31T15:45:40;98475.50;;;3.30;100.00
54872;BME280;43914;57.680;11.982;2023-01-31T15:48:14;98480.64;;;3.29;100.00
54872;BME280;43914;57.680;11.982;2023-01-31T15:50:57;98487.94;;;3.28;100.00
54872;BME280;43914;57.680;11.982;2023-01-31T15:53:28;98485.77;;;3.27;100.00